Time;durP1;ratioP1;P1;durP2;ratioP2;P2;SDS_P1;SDS_P2;PMS_P1;PMS_P2;Temp;Humidity;BMP_temperature;BMP_pressure;BME280_temperature;BME280_humidity;BME280_pressure;Samples;Min_cycle;Max_cycle;Signal;HPM_P1;HPM_P2
2022/06/11 00:01:23;;;;;;;8.88;5.38;;;;;;;16.59;74.13;101042.78;5073285;28;20203;-70
2022/06/11 00:03:51;;;;;;;6.90;5.32;;;;;;;16.53;74.39;101060.66;5091585;28;20502;-70
2022/06/11 00:06:18;;;;;;;7.78;5.32;;;;;;;16.64;74.35;101047.38;5091914;28;20043;-69
2022/06/11 00:08:45;;;;;;;8.07;5.82;;;;;;;16.69;74.26;101050.09;5080453;28;20040;-70
2022/06/11 00:11:11;;;;;;;7.32;5.03;;;;;;;16.72;74.05;101050.28;5085813;28;20185;-70
2022/06/11 00:13:37;;;;;;;9.73;5.57;;;;;;;16.81;73.89;101047.56;5079378;28;20559;-69
2022/06/11 00:16:03;;;;;;;6.32;5.07;;;;;;;16.85;73.79;101063.28;5073274;28;20083;-70
2022/06/11 00:18:30;;;;;;;8.20;5.63;;;;;;;16.85;73.58;101062.44;5072284;28;20518;-70
2022/06/11 00:20:56;;;;;;;8.35;5.80;;;;;;;16.87;73.72;101052.69;5075583;28;20143;-70
2022/06/11 00:23:21;;;;;;;9.55;6.15;;;;;;;16.79;73.96;101052.59;5089763;28;20197;-70
2022/06/11 00:25:47;;;;;;;9.10;6.10;;;;;;;16.72;74.09;101052.22;5091141;28;20101;-70
2022/06/11 00:28:13;;;;;;;7.97;6.03;;;;;;;16.70;74.04;101062.81;5093262;28;20046;-70
2022/06/11 00:30:39;;;;;;;7.57;5.47;;;;;;;16.66;74.60;101053.41;5091210;28;20050;-70
2022/06/11 00:33:06;;;;;;;9.23;6.18;;;;;;;16.67;74.73;101047.63;5090665;28;20655;-70
2022/06/11 00:35:34;;;;;;;7.95;5.45;;;;;;;16.76;74.55;101044.91;5089645;28;20130;-70
2022/06/11 00:38:00;;;;;;;8.90;5.35;;;;;;;16.80;74.13;101057.00;5078599;28;20036;-70
2022/06/11 00:40:27;;;;;;;7.80;5.15;;;;;;;16.76;74.29;101044.91;5092552;28;20047;-70
2022/06/11 00:42:53;;;;;;;7.47;5.47;;;;;;;16.74;74.48;101044.41;5079716;28;20037;-69
2022/06/11 00:45:18;;;;;;;7.95;5.40;;;;;;;16.71;74.38;101047.81;5070556;28;20059;-70
2022/06/11 00:47:47;;;;;;;7.65;4.72;;;;;;;16.71;74.65;101042.28;5072587;28;20549;-70
2022/06/11 00:50:27;;;;;;;8.55;5.43;;;;;;;16.69;74.70;101053.66;5071953;28;20036;-70
2022/06/11 00:52:55;;;;;;;9.55;5.65;;;;;;;16.71;74.53;101054.16;5081321;28;20041;-69
2022/06/11 00:55:26;;;;;;;10.20;5.43;;;;;;;16.70;74.26;101058.09;5071220;28;20554;-70
2022/06/11 00:57:59;;;;;;;8.15;5.63;;;;;;;16.57;74.82;101054.16;5088331;28;20043;-69
2022/06/11 01:00:39;;;;;;;9.68;5.32;;;;;;;16.56;74.69;101049.75;5091238;28;20052;-70
2022/06/11 01:03:05;;;;;;;6.70;5.35;;;;;;;16.61;74.58;101053.53;5078397;28;20048;-70
2022/06/11 01:05:34;;;;;;;8.23;6.10;;;;;;;16.65;74.60;101057.31;5076776;28;20028;-70
2022/06/11 01:08:11;;;;;;;8.15;5.63;;;;;;;16.71;74.36;101064.44;5060166;28;20047;-70
2022/06/11 01:10:46;;;;;;;9.43;6.85;;;;;;;16.67;74.43;101057.88;5072006;28;20052;-70
2022/06/11 01:13:30;;;;;;;9.68;6.97;;;;;;;16.59;74.23;101056.63;5084640;28;20040;-70
2022/06/11 01:16:00;;;;;;;9.05;6.72;;;;;;;16.52;74.75;101057.06;5092094;28;20047;-70
2022/06/11 01:18:37;;;;;;;7.93;5.95;;;;;;;16.42;74.68;101057.28;5069687;28;20036;-70
2022/06/11 01:21:21;;;;;;;10.32;6.15;;;;;;;16.38;75.31;101055.44;5080563;28;20032;-70
2022/06/11 01:24:02;;;;;;;7.15;5.78;;;;;;;16.21;75.47;101062.44;5090890;28;20068;-70
2022/06/11 01:26:47;;;;;;;7.72;5.70;;;;;;;16.20;76.24;101059.97;5092001;28;20040;-70
2022/06/11 01:29:18;;;;;;;7.30;4.75;;;;;;;16.14;76.16;101063.94;5092181;28;20066;-70
2022/06/11 01:31:52;;;;;;;7.20;5.32;;;;;;;16.15;76.63;101060.09;5089141;28;20039;-70
2022/06/11 01:34:29;;;;;;;9.50;5.15;;;;;;;16.25;76.76;101062.63;5090576;28;20086;-70
2022/06/11 01:37:01;;;;;;;10.55;6.07;;;;;;;16.31;76.61;101064.16;5053585;28;20513;-70
2022/06/11 01:39:43;;;;;;;8.63;4.80;;;;;;;16.28;76.39;101070.31;5070283;28;20042;-70
2022/06/11 01:42:21;;;;;;;9.18;5.60;;;;;;;16.29;76.82;101063.63;5070888;28;20043;-70
2022/06/11 01:45:12;;;;;;;8.55;6.18;;;;;;;16.26;77.23;101065.09;5071858;28;20047;-70
2022/06/11 01:47:38;;;;;;;10.05;6.18;;;;;;;16.32;76.88;101067.78;5085103;28;20448;-70
2022/06/11 01:50:06;;;;;;;7.22;5.30;;;;;;;16.34;76.64;101066.31;5090219;28;20127;-70
2022/06/11 01:52:35;;;;;;;7.10;5.35;;;;;;;16.41;76.47;101068.66;5081745;28;20036;-70
2022/06/11 01:55:00;;;;;;;8.38;5.53;;;;;;;16.45;76.43;101070.50;5071478;28;20036;-69
2022/06/11 01:57:46;;;;;;;7.68;5.97;;;;;;;16.36;76.63;101072.38;5070002;28;20039;-69
2022/06/11 02:00:16;;;;;;;7.75;5.63;;;;;;;16.24;76.97;101078.41;5069678;28;20535;-69
2022/06/11 02:02:51;;;;;;;8.23;5.80;;;;;;;16.25;77.61;101079.25;5080660;28;20051;-69
2022/06/11 02:06:09;;;;;;;10.23;6.13;;;;;;;16.29;77.51;101080.25;5090630;28;20035;-69
2022/06/11 02:08:55;;;;;;;7.50;5.17;;;;;;;16.35;76.91;101076.28;5077648;28;20040;-69
2022/06/11 02:11:43;;;;;;;8.50;5.53;;;;;;;16.35;77.58;101072.69;5069792;28;20062;-69
2022/06/11 02:14:12;;;;;;;9.07;5.13;;;;;;;16.35;77.23;101073.50;5069756;28;20056;-69
2022/06/11 02:16:47;;;;;;;10.60;6.15;;;;;;;16.39;77.57;101077.28;5072162;28;20090;-69
2022/06/11 02:19:17;;;;;;;11.38;5.63;;;;;;;16.48;77.74;101077.38;5069784;28;20036;-70
2022/06/11 02:21:52;;;;;;;7.60;6.15;;;;;;;16.55;77.27;101083.31;5065564;28;20047;-69
2022/06/11 02:24:25;;;;;;;8.68;5.95;;;;;;;16.61;77.16;101087.59;5069707;28;20045;-70
2022/06/11 02:26:53;;;;;;;8.55;6.28;;;;;;;16.68;76.82;101088.06;5071583;28;20487;-69
2022/06/11 02:29:21;;;;;;;8.75;5.85;;;;;;;16.70;77.09;101085.78;5073892;28;20130;-69
2022/06/11 02:31:52;;;;;;;9.05;5.70;;;;;;;16.77;76.76;101096.44;5078543;28;20457;-69
2022/06/11 02:34:20;;;;;;;7.93;5.40;;;;;;;16.87;76.13;101090.69;5089691;28;20108;-69
2022/06/11 02:36:55;;;;;;;8.17;6.13;;;;;;;16.92;76.40;101093.31;5091075;28;20036;-69
2022/06/11 02:39:21;;;;;;;8.90;6.05;;;;;;;16.90;76.03;101098.38;5089271;28;20298;-69
2022/06/11 02:41:53;;;;;;;7.85;5.68;;;;;;;16.90;76.38;101101.13;5091172;28;20177;-69
2022/06/11 02:44:19;;;;;;;8.02;5.60;;;;;;;17.04;76.02;101096.38;5090888;28;20044;-69
2022/06/11 02:46:45;;;;;;;8.10;6.00;;;;;;;17.16;75.84;101102.16;5080585;28;20123;-69
2022/06/11 02:49:20;;;;;;;7.45;5.82;;;;;;;17.34;75.40;101100.34;5070740;28;20158;-69
2022/06/11 02:51:48;;;;;;;7.75;5.57;;;;;;;17.55;74.38;101099.84;5070621;28;20044;-69
2022/06/11 02:54:14;;;;;;;7.57;5.57;;;;;;;17.73;74.46;101102.44;5070038;28;20039;-69
2022/06/11 02:56:41;;;;;;;6.50;5.28;;;;;;;17.86;73.23;101102.66;5070642;28;20044;-69
2022/06/11 02:59:07;;;;;;;10.68;5.75;;;;;;;18.04;72.43;101109.91;5069329;28;20126;-69
2022/06/11 03:01:34;;;;;;;8.57;5.88;;;;;;;18.05;72.33;101103.25;5071337;28;20051;-70
2022/06/11 03:03:59;;;;;;;8.02;5.90;;;;;;;18.17;71.67;101106.22;5090632;28;20444;-69
2022/06/11 03:06:26;;;;;;;9.60;6.05;;;;;;;18.27;71.29;101110.69;5090699;28;20042;-70
2022/06/11 03:08:54;;;;;;;9.48;6.13;;;;;;;18.52;70.42;101106.34;5090907;28;20133;-69
2022/06/11 03:11:20;;;;;;;7.90;5.75;;;;;;;18.68;69.71;101102.00;5093422;28;20131;-69
2022/06/11 03:13:45;;;;;;;7.47;5.13;;;;;;;18.79;69.51;101116.41;5093017;28;20122;-69
2022/06/11 03:16:11;;;;;;;8.52;5.85;;;;;;;18.92;68.87;101109.88;5092156;28;20055;-70
2022/06/11 03:18:37;;;;;;;8.90;5.35;;;;;;;18.99;68.53;101113.00;5091853;28;20561;-69
2022/06/11 03:21:03;;;;;;;7.28;5.55;;;;;;;19.07;67.88;101116.91;5081034;28;20747;-70
2022/06/11 03:23:29;;;;;;;6.63;5.32;;;;;;;19.13;67.77;101110.88;5092402;28;20547;-69
2022/06/11 03:25:55;;;;;;;7.68;5.18;;;;;;;19.18;67.55;101110.69;5092805;28;20039;-69
2022/06/11 03:28:23;;;;;;;6.38;5.18;;;;;;;19.27;66.66;101114.31;5089153;28;20410;-70
2022/06/11 03:30:50;;;;;;;6.60;4.93;;;;;;;19.37;66.42;101112.31;5090812;28;20125;-70
2022/06/11 03:33:16;;;;;;;7.22;5.40;;;;;;;19.42;65.94;101110.19;5093037;28;20672;-70
2022/06/11 03:35:46;;;;;;;7.72;5.07;;;;;;;19.47;65.77;101115.59;5093124;28;20556;-69
2022/06/11 03:38:12;;;;;;;7.43;5.07;;;;;;;19.52;65.31;101122.97;5092115;28;20089;-69
2022/06/11 03:40:38;;;;;;;6.85;5.20;;;;;;;19.68;65.11;101120.50;5093096;28;20036;-70
2022/06/11 03:43:04;;;;;;;7.68;5.68;;;;;;;19.85;64.37;101118.50;5093031;28;20035;-69
2022/06/11 03:45:30;;;;;;;7.03;5.22;;;;;;;19.93;63.99;101114.03;5090317;28;20043;-69
2022/06/11 03:47:56;;;;;;;6.28;5.65;;;;;;;19.87;64.12;101118.16;5091587;28;20036;-69
2022/06/11 03:50:26;;;;;;;6.88;5.18;;;;;;;19.81;63.93;101117.53;5071473;28;20064;-69
2022/06/11 03:52:53;;;;;;;8.27;5.15;;;;;;;19.78;64.12;101118.16;5088113;28;20126;-69
2022/06/11 03:55:21;;;;;;;6.60;4.97;;;;;;;19.97;63.59;101112.25;5089946;28;20448;-69
2022/06/11 03:57:47;;;;;;;6.85;5.47;;;;;;;20.27;62.75;101120.63;5088455;28;20043;-69
2022/06/11 04:01:14;;;;;;;7.75;5.85;;;;;;;20.32;62.29;101117.69;5088666;28;20047;-69
2022/06/11 04:03:04;;;;;;;5.32;4.63;;;;;;;20.34;62.43;101118.97;5091537;28;20032;-70
2022/06/11 04:05:30;;;;;;;6.18;4.72;;;;;;;20.44;62.27;101115.00;5092638;28;20118;-70
2022/06/11 04:07:56;;;;;;;7.25;5.82;;;;;;;20.53;61.43;101118.56;5092643;28;20063;-70
2022/06/11 04:10:21;;;;;;;9.13;5.68;;;;;;;20.70;61.38;101115.69;5093157;28;20506;-70
2022/06/11 04:12:47;;;;;;;6.07;5.28;;;;;;;20.93;60.44;101106.97;5089278;28;20032;-70
2022/06/11 04:15:13;;;;;;;6.45;5.10;;;;;;;21.05;59.26;101115.44;5098342;28;20093;-70
2022/06/11 04:17:39;;;;;;;7.28;4.75;;;;;;;21.07;58.87;101110.31;5084622;28;20132;-70
2022/06/11 04:20:05;;;;;;;6.97;5.45;;;;;;;21.25;58.36;101111.84;5074589;28;20067;-70
2022/06/11 04:22:31;;;;;;;7.15;5.20;;;;;;;21.29;58.71;101117.56;5072037;28;20411;-69
2022/06/11 04:24:57;;;;;;;5.07;4.43;;;;;;;21.53;58.21;101125.22;5073158;28;20036;-69
2022/06/11 04:27:23;;;;;;;5.60;4.85;;;;;;;21.83;57.29;101115.53;5077185;28;20126;-69
2022/06/11 04:29:52;;;;;;;6.03;4.75;;;;;;;21.99;57.42;101124.06;5103015;28;20035;-69
2022/06/11 04:32:18;;;;;;;6.75;5.00;;;;;;;22.17;55.87;101114.31;5107879;28;20049;-69
2022/06/11 04:34:46;;;;;;;5.78;4.35;;;;;;;22.37;55.58;101126.56;5073068;28;20067;-69
2022/06/11 04:37:16;;;;;;;5.90;4.18;;;;;;;22.71;53.28;101122.47;5074038;28;20132;-69
2022/06/11 04:39:44;;;;;;;6.95;4.30;;;;;;;22.89;53.27;101117.47;5085372;28;20045;-69
2022/06/11 04:42:12;;;;;;;6.22;4.10;;;;;;;23.05;51.98;101115.56;5080725;28;20047;-70
2022/06/11 04:44:39;;;;;;;6.28;4.80;;;;;;;22.97;51.86;101113.72;5084530;28;20036;-69
2022/06/11 04:47:06;;;;;;;5.57;4.13;;;;;;;22.76;52.86;101124.25;5092200;28;20039;-70
2022/06/11 04:49:32;;;;;;;7.32;4.47;;;;;;;23.06;52.32;101120.00;5086624;28;20036;-69
2022/06/11 04:51:57;;;;;;;4.53;4.13;;;;;;;23.39;52.07;101116.16;5079711;28;20044;-69
2022/06/11 04:54:23;;;;;;;6.40;4.07;;;;;;;23.58;50.87;101115.50;5072843;28;20119;-70
2022/06/11 04:56:48;;;;;;;4.22;3.83;;;;;;;23.73;50.58;101111.94;5071139;28;20077;-69
2022/06/11 04:59:14;;;;;;;4.50;4.05;;;;;;;24.08;49.65;101111.25;5072746;28;20040;-70
2022/06/11 05:01:41;;;;;;;6.05;3.65;;;;;;;24.38;48.89;101108.81;5081816;28;20060;-69
2022/06/11 05:04:08;;;;;;;4.72;4.15;;;;;;;24.30;48.53;101108.66;5089986;28;20048;-69
2022/06/11 05:06:38;;;;;;;8.70;3.85;;;;;;;23.99;49.34;101114.22;5094897;28;20066;-70
2022/06/11 05:09:04;;;;;;;4.75;3.63;;;;;;;24.10;48.35;101109.69;5091177;28;20032;-70
2022/06/11 05:11:29;;;;;;;4.80;3.60;;;;;;;24.31;47.49;101107.50;5091449;28;20028;-70
2022/06/11 05:13:55;;;;;;;6.97;4.05;;;;;;;24.33;48.59;101119.16;5091187;28;20092;-70
2022/06/11 05:16:21;;;;;;;5.40;4.28;;;;;;;24.44;47.05;101115.78;5082119;28;20402;-69
2022/06/11 05:18:48;;;;;;;5.13;4.18;;;;;;;24.30;47.73;101119.88;5088088;28;20111;-70
2022/06/11 05:21:13;;;;;;;4.05;3.35;;;;;;;24.21;48.34;101110.78;5090509;28;20039;-70
2022/06/11 05:23:39;;;;;;;7.45;4.05;;;;;;;24.41;47.71;101116.50;5089767;28;20032;-70
2022/06/11 05:26:06;;;;;;;5.95;3.85;;;;;;;24.44;47.24;101116.59;5088625;28;20051;-70
2022/06/11 05:28:32;;;;;;;5.15;3.85;;;;;;;24.60;47.19;101114.56;5071008;28;20139;-70
2022/06/11 05:30:58;;;;;;;5.07;3.42;;;;;;;24.76;46.56;101116.53;5089282;28;20040;-70
2022/06/11 05:33:25;;;;;;;4.30;3.58;;;;;;;25.01;46.38;101119.97;5090963;28;20457;-70
2022/06/11 05:35:51;;;;;;;5.40;3.83;;;;;;;24.95;46.33;101117.38;5090996;28;20131;-70
2022/06/11 05:38:21;;;;;;;4.53;3.80;;;;;;;25.07;46.86;101127.72;5090000;28;20044;-70
2022/06/11 05:40:48;;;;;;;5.20;3.42;;;;;;;25.16;46.00;101121.88;5089377;28;20043;-70
2022/06/11 05:43:15;;;;;;;4.10;3.58;;;;;;;25.05;46.68;101115.22;5090686;28;20036;-70
2022/06/11 05:45:44;;;;;;;4.30;3.90;;;;;;;24.59;46.08;101131.78;5090802;28;20031;-70
2022/06/11 05:48:11;;;;;;;4.20;3.67;;;;;;;24.33;47.10;101123.94;5089241;28;20032;-70
2022/06/11 05:50:40;;;;;;;4.65;4.03;;;;;;;24.28;48.10;101121.38;5086329;28;20032;-70
2022/06/11 05:53:06;;;;;;;4.35;3.95;;;;;;;24.16;48.17;101129.88;5090377;28;20621;-70
2022/06/11 05:55:34;;;;;;;3.85;3.47;;;;;;;24.00;47.92;101132.69;5089670;28;20114;-70
2022/06/11 05:58:00;;;;;;;;;;;;;;;24.09;47.55;101127.69;5090982;28;20413;-71
2022/06/11 06:00:28;;;;;;;3.78;3.17;;;;;;;24.38;47.93;101131.28;5069273;28;19925;-71
2022/06/11 06:02:54;;;;;;;3.92;3.53;;;;;;;24.67;47.13;101129.97;5089448;28;20039;-70
2022/06/11 06:05:24;;;;;;;4.03;2.88;;;;;;;25.07;46.27;101132.53;5089374;28;20059;-70
2022/06/11 06:07:50;;;;;;;3.55;3.25;;;;;;;25.44;45.44;101133.72;5090432;28;20094;-71
2022/06/11 06:10:16;;;;;;;4.43;3.00;;;;;;;25.69;44.30;101139.06;5084963;28;20044;-71
2022/06/11 06:12:41;;;;;;;4.70;3.00;;;;;;;25.83;45.10;101142.13;5089006;28;20089;-71
2022/06/11 06:15:19;;;;;;;8.98;3.65;;;;;;;25.85;44.37;101136.94;5090307;28;20032;-69
2022/06/11 06:17:45;;;;;;;7.05;3.35;;;;;;;25.44;44.13;101144.13;5090142;28;20023;-69
2022/06/11 06:20:13;;;;;;;3.88;3.15;;;;;;;25.20;45.32;101136.81;5089869;28;20050;-69
2022/06/11 06:22:39;;;;;;;3.20;2.90;;;;;;;25.37;45.03;101136.38;5090612;28;20522;-71
2022/06/11 06:25:05;;;;;;;3.50;3.17;;;;;;;25.78;44.85;101140.44;5088025;28;20043;-70
2022/06/11 06:27:31;;;;;;;8.37;3.17;;;;;;;26.20;44.32;101133.16;5090449;28;20039;-70
2022/06/11 06:29:57;;;;;;;5.95;3.28;;;;;;;26.61;43.02;101151.16;5088518;28;20040;-70
2022/06/11 06:32:22;;;;;;;4.10;3.70;;;;;;;26.80;42.23;101144.63;5089965;28;20100;-70
2022/06/11 06:34:48;;;;;;;4.95;3.92;;;;;;;26.66;42.26;101146.00;5090208;28;20517;-70
2022/06/11 06:37:14;;;;;;;3.78;3.38;;;;;;;26.39;41.67;101145.19;5088307;28;20043;-70
2022/06/11 06:39:39;;;;;;;6.00;3.67;;;;;;;26.56;42.12;101141.03;5085124;28;20048;-70
2022/06/11 06:42:06;;;;;;;4.20;3.60;;;;;;;26.75;42.25;101140.13;5079771;28;20522;-70
2022/06/11 06:44:33;;;;;;;3.65;3.22;;;;;;;27.00;41.30;101141.31;5090154;28;20050;-70
2022/06/11 06:46:58;;;;;;;4.60;2.78;;;;;;;27.05;40.95;101145.81;5075491;28;20044;-70
2022/06/11 06:49:24;;;;;;;5.93;2.88;;;;;;;26.94;40.87;101142.81;5060559;28;20414;-70
2022/06/11 06:51:50;;;;;;;6.10;2.97;;;;;;;27.04;39.75;101142.16;5094381;28;20102;-70
2022/06/11 06:54:16;;;;;;;5.68;3.47;;;;;;;26.49;40.03;101142.91;5076863;28;20414;-70
2022/06/11 06:56:43;;;;;;;3.20;2.38;;;;;;;26.29;40.37;101144.97;5095300;28;20554;-70
2022/06/11 06:59:08;;;;;;;8.70;3.22;;;;;;;26.38;39.49;101143.56;5089701;28;20031;-70
2022/06/11 07:01:34;;;;;;;6.78;2.70;;;;;;;26.47;39.50;101134.84;5078212;28;20503;-70
2022/06/11 07:04:00;;;;;;;8.18;3.40;;;;;;;26.56;39.47;101138.22;5102303;28;20047;-70
2022/06/11 07:06:26;;;;;;;7.07;2.72;;;;;;;26.62;38.94;101147.97;5089092;28;20036;-70
2022/06/11 07:08:53;;;;;;;3.60;2.40;;;;;;;26.67;39.33;101142.00;5086832;28;20089;-70
2022/06/11 07:11:20;;;;;;;4.50;2.08;;;;;;;26.62;38.54;101136.72;5087154;28;20179;-69
2022/06/11 07:13:46;;;;;;;4.77;2.50;;;;;;;26.72;38.76;101138.84;5087842;28;20038;-69
2022/06/11 07:16:13;;;;;;;4.60;2.70;;;;;;;26.93;37.17;101152.47;5092979;28;20039;-69
2022/06/11 07:18:46;;;;;;;2.35;1.80;;;;;;;27.00;36.47;101143.31;5074838;28;20654;-70
2022/06/11 07:21:21;;;;;;;2.50;1.77;;;;;;;27.14;37.04;101140.72;5075025;28;20109;-69
2022/06/11 07:23:52;;;;;;;3.00;1.83;;;;;;;27.33;35.39;101146.19;5072550;28;20048;-69
2022/06/11 07:26:21;;;;;;;2.90;1.80;;;;;;;27.26;35.67;101139.66;5090396;28;20036;-69
2022/06/11 07:28:53;;;;;;;2.08;1.80;;;;;;;27.20;36.28;101141.19;5079453;28;20040;-69
2022/06/11 07:31:19;;;;;;;3.47;1.65;;;;;;;26.98;36.17;101140.06;5083716;28;20056;-69
2022/06/11 07:33:45;;;;;;;3.25;1.52;;;;;;;26.56;36.57;101138.22;5078804;28;20036;-69
2022/06/11 07:36:12;;;;;;;1.83;1.60;;;;;;;26.24;37.45;101139.66;5074554;28;20075;-69
2022/06/11 07:38:37;;;;;;;;;;;;;;;26.33;37.33;101141.03;5076674;28;20033;-69
2022/06/11 07:41:03;;;;;;;2.90;1.60;;;;;;;26.57;37.66;101133.41;5087174;28;19973;-69
2022/06/11 07:43:29;;;;;;;5.32;1.80;;;;;;;26.85;36.86;101135.81;5081120;28;20040;-70
2022/06/11 07:45:55;;;;;;;4.68;2.20;;;;;;;27.09;37.30;101132.59;5095093;28;20430;-69
2022/06/11 07:48:21;;;;;;;3.55;1.63;;;;;;;27.21;36.98;101128.72;5089167;28;20078;-72
2022/06/11 07:50:49;;;;;;;9.37;2.60;;;;;;;27.21;36.36;101134.34;5073131;28;20078;-72
2022/06/11 07:53:19;;;;;;;3.25;2.15;;;;;;;27.08;36.57;101139.44;5090893;28;20035;-70
2022/06/11 07:55:46;;;;;;;3.45;2.00;;;;;;;27.29;37.07;101142.53;5084431;28;20060;-70
2022/06/11 07:58:13;;;;;;;2.13;1.80;;;;;;;27.50;36.00;101130.69;5074524;28;20044;-70
2022/06/11 08:00:43;;;;;;;;;;;;;;;27.59;35.96;101141.66;5077758;28;20063;-69
2022/06/11 08:03:09;;;;;;;3.22;2.15;;;;;;;27.56;35.62;101145.25;5084736;28;19988;-70
2022/06/11 08:05:36;;;;;;;3.50;2.03;;;;;;;27.52;36.46;101136.75;5071397;28;20082;-70
2022/06/11 08:08:02;;;;;;;2.38;2.17;;;;;;;27.68;35.72;101138.59;5075896;28;20082;-70
2022/06/11 08:10:29;;;;;;;2.78;2.10;;;;;;;27.28;36.28;101145.72;5081817;28;20044;-70
2022/06/11 08:12:55;;;;;;;4.15;2.08;;;;;;;26.94;37.05;101142.00;5093301;28;20044;-70
2022/06/11 08:15:21;;;;;;;2.40;2.20;;;;;;;26.87;37.23;101139.88;5093085;28;20039;-70
2022/06/11 08:17:46;;;;;;;2.60;2.25;;;;;;;26.82;36.76;101142.22;5074535;28;20043;-71
2022/06/11 08:20:19;;;;;;;6.53;2.50;;;;;;;26.99;37.62;101147.31;5076550;28;20119;-70
2022/06/11 08:22:44;;;;;;;3.15;2.20;;;;;;;27.11;36.94;101133.03;5085133;28;20036;-70
2022/06/11 08:25:10;;;;;;;4.10;2.45;;;;;;;27.38;37.49;101147.03;5092301;28;20048;-71
2022/06/11 08:27:35;;;;;;;3.47;2.70;;;;;;;27.58;36.87;101143.66;5093255;28;20036;-70
2022/06/11 08:30:01;;;;;;;3.50;2.55;;;;;;;27.72;35.94;101136.59;5093251;28;20047;-71
2022/06/11 08:32:27;;;;;;;5.72;2.58;;;;;;;27.75;36.02;101141.47;5082834;28;20062;-71
2022/06/11 08:34:53;;;;;;;3.00;2.58;;;;;;;27.71;35.67;101141.44;5073129;28;20525;-71
2022/06/11 08:37:19;;;;;;;2.80;2.42;;;;;;;27.60;35.13;101132.03;5077591;28;20040;-71
2022/06/11 08:39:44;;;;;;;3.75;2.55;;;;;;;27.47;34.89;101147.56;5077060;28;20044;-71
2022/06/11 08:42:41;;;;;;;3.35;2.72;;;;;;;27.52;34.78;101144.41;5084218;28;20041;-70
2022/06/11 08:45:23;;;;;;;2.42;2.22;;;;;;;27.64;34.82;101135.72;5063959;28;20106;-70
2022/06/11 08:47:52;;;;;;;2.50;2.30;;;;;;;27.66;33.68;101133.31;5060505;28;20519;-70
2022/06/11 08:50:24;;;;;;;2.28;2.17;;;;;;;27.46;34.66;101132.66;5076349;28;20139;-70
2022/06/11 08:52:50;;;;;;;3.30;2.70;;;;;;;27.49;34.52;101143.16;5076974;28;20121;-71
2022/06/11 08:55:18;;;;;;;2.95;2.70;;;;;;;27.41;34.44;101140.63;5096086;28;20077;-71
2022/06/11 08:58:17;;;;;;;3.00;2.70;;;;;;;27.19;35.12;101133.91;5111735;28;20118;-71
2022/06/11 09:00:53;;;;;;;2.92;2.60;;;;;;;27.13;35.29;101130.63;5091801;28;20048;-71
2022/06/11 09:03:18;;;;;;;3.92;2.95;;;;;;;27.08;35.69;101138.63;5080962;28;20526;-71
2022/06/11 09:05:50;;;;;;;4.30;3.25;;;;;;;26.92;35.25;101131.13;5072147;28;20131;-71
2022/06/11 09:08:22;;;;;;;2.83;2.53;;;;;;;26.92;36.16;101124.69;5088915;28;20043;-71
2022/06/11 09:10:57;;;;;;;3.25;2.95;;;;;;;26.97;36.53;101135.59;5087489;28;20069;-71
2022/06/11 09:13:46;;;;;;;3.67;3.38;;;;;;;27.10;35.90;101127.78;5092093;28;20494;-71
2022/06/11 09:16:21;;;;;;;4.15;3.25;;;;;;;27.17;35.24;101125.84;5084885;28;20036;-71
2022/06/11 09:19:08;;;;;;;3.95;3.08;;;;;;;27.29;36.25;101128.44;5079387;28;20032;-71
2022/06/11 09:22:07;;;;;;;4.57;3.60;;;;;;;27.24;35.17;101125.94;5088473;28;20067;-71
2022/06/11 09:24:51;;;;;;;4.57;3.97;;;;;;;26.57;36.99;101122.97;5090800;28;20472;-71
2022/06/11 09:27:19;;;;;;;3.63;3.33;;;;;;;25.99;37.23;101117.53;5091882;28;20113;-72
2022/06/11 09:30:00;;;;;;;;;;;;;;;25.67;38.38;101118.88;5089971;28;20041;-71
2022/06/11 09:32:41;;;;;;;5.53;3.13;;;;;;;25.49;37.95;101119.34;5070188;28;20027;-72
2022/06/11 09:35:09;;;;;;;3.97;3.55;;;;;;;25.44;39.29;101116.03;5071957;28;20052;-71
2022/06/11 09:37:47;;;;;;;;;;;;;;;25.40;39.17;101110.34;5072069;28;20109;-72
2022/06/11 09:40:27;;;;;;;2.92;2.60;;;;;;;25.44;38.11;101107.63;5072596;28;20023;-71
2022/06/11 09:43:26;;;;;;;4.22;3.20;;;;;;;25.08;38.54;101108.88;5077810;28;20126;-72
2022/06/11 09:46:10;;;;;;;3.95;3.13;;;;;;;24.72;39.93;101113.66;5088243;28;20040;-71
2022/06/11 09:48:54;;;;;;;3.75;3.35;;;;;;;24.57;40.35;101112.50;5091480;28;20032;-71
2022/06/11 09:51:38;;;;;;;4.55;3.42;;;;;;;24.63;40.43;101115.84;5089305;28;20089;-72
2022/06/11 09:54:30;;;;;;;3.17;2.88;;;;;;;24.77;40.35;101110.56;5077983;28;20093;-71
2022/06/11 09:57:22;;;;;;;4.07;2.67;;;;;;;24.92;39.05;101106.91;5073861;28;20052;-71
2022/06/11 09:59:51;;;;;;;4.03;2.85;;;;;;;25.12;40.79;101110.56;5075891;28;20048;-72
2022/06/11 10:02:27;;;;;;;7.57;3.78;;;;;;;24.99;41.35;101111.03;5067590;28;20098;-72
2022/06/11 10:04:54;;;;;;;4.00;3.60;;;;;;;24.85;40.84;101106.75;5069673;28;20040;-71
2022/06/11 10:07:23;;;;;;;3.45;3.15;;;;;;;24.78;41.95;101100.16;5094101;28;20393;-71
2022/06/11 10:09:56;;;;;;;4.22;3.65;;;;;;;24.80;42.01;101092.97;5080602;28;20043;-71
2022/06/11 10:12:27;;;;;;;4.15;3.28;;;;;;;24.75;40.96;101100.88;5074211;28;20048;-71
2022/06/11 10:15:04;;;;;;;4.72;2.97;;;;;;;24.63;40.43;101093.38;5071115;28;20491;-71
2022/06/11 10:18:04;;;;;;;4.18;3.25;;;;;;;24.64;40.31;101100.63;5084721;28;20043;-70
2022/06/11 10:20:38;;;;;;;4.05;3.00;;;;;;;24.51;40.79;101104.75;5083691;28;20435;-71
2022/06/11 10:23:42;;;;;;;3.40;3.10;;;;;;;24.50;40.16;101103.13;5076998;28;20072;-71
2022/06/11 10:26:28;;;;;;;3.30;3.00;;;;;;;24.51;39.37;101091.53;5086483;28;20503;-71
2022/06/11 10:29:11;;;;;;;3.22;2.92;;;;;;;24.50;39.08;101083.47;5069386;28;20437;-71
2022/06/11 10:31:48;;;;;;;5.00;2.83;;;;;;;24.55;39.56;101086.81;5073953;28;20499;-71
2022/06/11 10:34:26;;;;;;;4.17;3.20;;;;;;;24.75;41.09;101084.03;5074843;28;20071;-71
2022/06/11 10:36:56;;;;;;;6.82;4.22;;;;;;;24.84;40.97;101082.66;5070724;28;20123;-71
2022/06/11 10:39:29;;;;;;;5.68;3.15;;;;;;;24.84;42.07;101076.25;5069603;28;20048;-73
2022/06/11 10:42:35;;;;;;;5.35;3.13;;;;;;;24.88;42.83;101079.94;5077581;28;20031;-72
2022/06/11 10:45:01;;;;;;;4.95;3.28;;;;;;;24.80;42.24;101080.94;5086966;28;20032;-71
2022/06/11 10:47:34;;;;;;;5.00;3.75;;;;;;;24.86;42.19;101077.50;5071069;28;20097;-72
2022/06/11 10:50:07;;;;;;;5.97;3.63;;;;;;;24.83;40.54;101072.63;5074472;28;20044;-71
2022/06/11 10:52:38;;;;;;;3.53;3.03;;;;;;;24.91;40.57;101077.19;5069463;28;20094;-72
2022/06/11 10:55:07;;;;;;;6.18;3.90;;;;;;;24.98;40.31;101075.72;5072537;28;20090;-71
2022/06/11 10:57:34;;;;;;;3.40;3.10;;;;;;;24.96;40.76;101078.88;5070652;28;20048;-71
2022/06/11 11:00:18;;;;;;;4.05;3.25;;;;;;;25.13;40.04;101077.66;5102974;28;20140;-72
2022/06/11 11:02:55;;;;;;;5.80;3.58;;;;;;;25.21;39.79;101074.66;5079709;28;20075;-72
2022/06/11 11:05:22;;;;;;;4.93;3.55;;;;;;;25.25;39.07;101074.72;5083598;28;20040;-72
2022/06/11 11:07:52;;;;;;;3.03;2.78;;;;;;;25.22;39.03;101067.03;5086868;28;20049;-72
2022/06/11 11:10:27;;;;;;;4.15;3.20;;;;;;;24.99;38.11;101085.75;5052250;28;20121;-72
2022/06/11 11:12:57;;;;;;;3.65;3.10;;;;;;;24.64;39.72;101084.63;5070521;28;20041;-72
2022/06/11 11:15:27;;;;;;;3.78;3.10;;;;;;;24.51;39.55;101083.13;5085048;28;20047;-71
2022/06/11 11:18:00;;;;;;;5.03;3.20;;;;;;;24.52;40.48;101083.94;5087116;28;20063;-71
2022/06/11 11:20:35;;;;;;;5.43;3.63;;;;;;;24.54;43.01;101089.97;5071428;28;20051;-71
2022/06/11 11:23:05;;;;;;;4.95;3.38;;;;;;;24.43;44.31;101088.91;5069205;28;20036;-72
2022/06/11 11:25:37;;;;;;;6.10;4.00;;;;;;;24.34;44.74;101092.72;5070266;28;20040;-72
2022/06/11 11:28:05;;;;;;;5.13;4.20;;;;;;;24.17;45.02;101092.25;5069338;28;20553;-71
2022/06/11 11:30:32;;;;;;;5.28;3.67;;;;;;;24.03;45.96;101092.72;5084448;28;20043;-71
2022/06/11 11:33:22;;;;;;;7.22;4.15;;;;;;;23.91;45.72;101093.59;5080669;28;20044;-71
2022/06/11 11:35:47;;;;;;;6.43;3.65;;;;;;;23.92;46.09;101094.41;5070116;28;20072;-72
2022/06/11 11:38:20;;;;;;;5.07;3.85;;;;;;;23.98;46.31;101102.22;5056724;28;20059;-72
2022/06/11 11:40:56;;;;;;;5.72;4.18;;;;;;;23.98;46.43;101095.78;5078928;28;20558;-72
2022/06/11 11:43:23;;;;;;;5.13;4.63;;;;;;;23.98;46.25;101098.59;5073581;28;20040;-71